エレバン の空港の天気 - METARとTAF

ズヴァルトノッツ国際空港 ( UDYZ / EVN ) - アルメニア エレバン
飛行場実況気象(Metar)
観測時間11/15 18:30 AMT (11/15 14:30 UTC)
風向・風速静穏 0m/s
視程6000m
天気現象
なし
気温7℃
湿度49%
気圧1024hPa
METARUDYZ 151430Z 00000KT 6000 NSC 07/M03 Q1024 R09/010070 NOSIG
過去の天気等 Google飛行場航空写真 Wunderground天気予報

過去48時間のMETAR

飛行場予報(TAF)
発表時間: 11/15 15:08 AMT (11/15 11:08 UTC)
予報対象時間: 15日16時 AMT ~ 16日16時 AMT
風向・風速北東 3m/s
視程6000m
なし
16日4時 AMT ~ 16日13時 AMT に一時的に
視程2300m
天気現象もや
TAF UDYZ 151108Z 1512/1612 04006KT 6000 NSC
TEMPO 1600/1609 2300 BR